createdAt,value
2022-09-28T00:01:07.134Z,94791.38
2022-09-28T00:03:34.819Z,94787.69
2022-09-28T00:06:06.423Z,94784.25
2022-09-28T00:08:35.075Z,94766.13
2022-09-28T00:11:04.577Z,94761.81
2022-09-28T00:13:32.984Z,94751.44
2022-09-28T00:16:18.062Z,94757.28
2022-09-28T00:18:46.016Z,94741.66
2022-09-28T00:21:17.934Z,94755.69
2022-09-28T00:23:59.872Z,94738.91
2022-09-28T00:26:31.738Z,94736.31
2022-09-28T00:29:00.211Z,94724.81
2022-09-28T00:31:29.282Z,94723.06
2022-09-28T00:34:02.293Z,94722.88
2022-09-28T00:36:30.429Z,94714.78
2022-09-28T00:38:58.408Z,94707.81
2022-09-28T00:41:26.210Z,94705.19
2022-09-28T00:43:55.501Z,94707.72
2022-09-28T00:46:23.790Z,94699.16
2022-09-28T00:49:01.202Z,94688.19
2022-09-28T00:51:28.758Z,94685.91
2022-09-28T00:53:56.937Z,94675.03
2022-09-28T00:56:27.246Z,94674.31
2022-09-28T00:59:08.409Z,94666.47
2022-09-28T01:01:36.220Z,94662.84
2022-09-28T01:04:05.103Z,94649.94
2022-09-28T01:06:33.570Z,94651.81
2022-09-28T01:09:02.622Z,94649.25
2022-09-28T01:11:31.254Z,94642.63
2022-09-28T01:14:01.039Z,94640.31
2022-09-28T01:16:41.479Z,94635.72
2022-09-28T01:19:16.977Z,94625.72
2022-09-28T01:21:46.780Z,94617.72
2022-09-28T01:24:15.792Z,94614.56
2022-09-28T01:27:02.499Z,94607.16
2022-09-28T01:29:36.301Z,94598.72
2022-09-28T01:32:07.337Z,94598.81
2022-09-28T01:34:37.256Z,94587.78
2022-09-28T01:37:05.838Z,94593.25
2022-09-28T01:39:34.189Z,94592.34
2022-09-28T01:42:05.722Z,94579.78
2022-09-28T01:44:37.390Z,94581.69
2022-09-28T01:47:05.172Z,94578.72
2022-09-28T01:49:34.355Z,94563.09
2022-09-28T01:52:02.318Z,94556.56
2022-09-28T01:54:34.124Z,94547.44
2022-09-28T01:57:06.485Z,94544.34
2022-09-28T01:59:34.435Z,94551.41
2022-09-28T02:02:08.541Z,94547.06
2022-09-28T02:04:40.110Z,94542.75
2022-09-28T02:07:09.425Z,94526.03
2022-09-28T02:09:37.985Z,94535.91
2022-09-28T02:12:09.236Z,94527.47
2022-09-28T02:14:39.485Z,94530.88
2022-09-28T02:17:09.088Z,94525.03
2022-09-28T02:19:37.528Z,94517.84
2022-09-28T02:22:07.313Z,94521.34
2022-09-28T02:24:37.342Z,94520.94
2022-09-28T02:27:06.633Z,94516.66
2022-09-28T02:29:38.041Z,94572.69
2022-09-28T02:32:05.733Z,94520.13
2022-09-28T02:34:36.213Z,94521.28
2022-09-28T02:37:05.920Z,94523.34
2022-09-28T02:39:33.852Z,94509.31
2022-09-28T02:42:03.330Z,94514.47
2022-09-28T02:44:35.015Z,94503.72
2022-09-28T02:47:06.341Z,94502.78
2022-09-28T02:49:37.166Z,94503.72
2022-09-28T02:52:13.697Z,94498.09
2022-09-28T02:54:51.151Z,94493.28
2022-09-28T02:57:21.620Z,94499.84
2022-09-28T02:59:50.520Z,94498.53
2022-09-28T03:02:21.769Z,94499.16
2022-09-28T03:04:50.598Z,94489.69
2022-09-28T03:07:19.391Z,94482.53
2022-09-28T03:09:47.546Z,94485.94
2022-09-28T03:12:16.654Z,94476.59
2022-09-28T03:14:44.198Z,94476.91
2022-09-28T03:17:17.195Z,94479.28
2022-09-28T03:19:46.293Z,94474.44
2022-09-28T03:22:20.686Z,94481.78
2022-09-28T03:24:48.554Z,94483.81
2022-09-28T03:27:16.486Z,94482.56
2022-09-28T03:29:44.341Z,94489.66
2022-09-28T03:32:13.958Z,94505.84
2022-09-28T03:34:41.569Z,94513.56
2022-09-28T03:37:10.828Z,94521.59
2022-09-28T03:39:38.568Z,94518.81
2022-09-28T03:42:06.562Z,94512.34
2022-09-28T03:44:34.198Z,94534.59
2022-09-28T03:47:07.600Z,94523.19
2022-09-28T03:49:35.722Z,94520.22
2022-09-28T03:52:06.114Z,94517.22
2022-09-28T03:54:35.738Z,94512.16
2022-09-28T03:57:06.213Z,94517.13
2022-09-28T03:59:43.239Z,94515.00
2022-09-28T04:02:14.201Z,94518.28
2022-09-28T04:04:45.156Z,94514.50
2022-09-28T04:07:13.196Z,94507.00
2022-09-28T04:09:42.490Z,94503.72
2022-09-28T04:12:19.108Z,94510.09
2022-09-28T04:14:48.549Z,94517.00
2022-09-28T04:17:20.676Z,94504.75
2022-09-28T04:19:48.266Z,94495.13
2022-09-28T04:22:16.294Z,94496.41
2022-09-28T04:24:46.581Z,94497.94
2022-09-28T04:27:28.074Z,94502.91
2022-09-28T04:29:55.607Z,94499.81
2022-09-28T04:32:24.996Z,94512.50
2022-09-28T04:34:58.839Z,94512.28
2022-09-28T04:37:26.548Z,94512.53
2022-09-28T04:39:58.732Z,94506.63
2022-09-28T04:42:29.811Z,94521.75
2022-09-28T04:44:58.867Z,94515.72
2022-09-28T04:47:26.855Z,94513.78
2022-09-28T04:49:54.423Z,94512.38
2022-09-28T04:52:22.352Z,94512.06
2022-09-28T04:54:52.021Z,94511.75
2022-09-28T04:57:23.755Z,94501.84
2022-09-28T04:59:51.951Z,94514.75
2022-09-28T05:02:21.021Z,94514.72
2022-09-28T05:04:49.832Z,94508.53
2022-09-28T05:07:17.764Z,94508.38
2022-09-28T05:09:50.443Z,94516.13
2022-09-28T05:12:19.769Z,94523.66
2022-09-28T05:14:52.375Z,94522.25
2022-09-28T05:17:24.325Z,94515.59
2022-09-28T05:19:52.877Z,94518.50
2022-09-28T05:22:20.969Z,94516.94
2022-09-28T05:24:51.977Z,94511.19
2022-09-28T05:27:23.439Z,94513.22
2022-09-28T05:29:52.827Z,94500.00
2022-09-28T05:32:22.806Z,94508.28
2022-09-28T05:34:50.690Z,94513.19
2022-09-28T05:37:18.564Z,94520.16
2022-09-28T05:39:47.591Z,94537.56
2022-09-28T05:42:15.466Z,94541.03
2022-09-28T05:44:45.348Z,94539.03
2022-09-28T05:47:14.662Z,94533.47
2022-09-28T05:49:42.631Z,94545.25
2022-09-28T05:52:10.535Z,94543.81
2022-09-28T05:54:42.377Z,94544.97
2022-09-28T05:57:10.019Z,94536.88
2022-09-28T05:59:37.803Z,94544.50
2022-09-28T06:02:06.031Z,94543.28
2022-09-28T06:04:49.525Z,94532.38
2022-09-28T06:07:20.177Z,94535.66
2022-09-28T06:09:48.068Z,94529.75
2022-09-28T06:12:19.964Z,94541.09
2022-09-28T06:14:48.705Z,94538.13
2022-09-28T06:17:16.393Z,94544.53
2022-09-28T06:19:46.092Z,94549.03
2022-09-28T06:22:13.764Z,94547.19
2022-09-28T06:24:41.364Z,94549.66
2022-09-28T06:27:11.269Z,94560.38
2022-09-28T06:29:42.570Z,94564.81
2022-09-28T06:32:14.032Z,94568.38
2022-09-28T06:34:42.857Z,94564.28
2022-09-28T06:37:13.378Z,94578.19
2022-09-28T06:39:41.351Z,94581.72
2022-09-28T06:42:09.058Z,94596.91
2022-09-28T06:44:37.432Z,94588.22
2022-09-28T06:47:05.015Z,94591.28
2022-09-28T06:49:33.866Z,94594.44
2022-09-28T06:52:14.758Z,94596.38
2022-09-28T06:54:44.330Z,94611.97
2022-09-28T06:57:11.970Z,94611.16
2022-09-28T06:59:39.825Z,94608.38
2022-09-28T07:02:07.853Z,94613.06
2022-09-28T07:04:36.854Z,94620.56
2022-09-28T07:07:05.212Z,94617.09
2022-09-28T07:09:41.438Z,94617.78
2022-09-28T07:12:14.178Z,94614.25
2022-09-28T07:14:47.881Z,94614.41
2022-09-28T07:17:18.637Z,94622.19
2022-09-28T07:19:52.742Z,94628.63
2022-09-28T07:22:30.920Z,94628.00
2022-09-28T07:25:02.868Z,94634.09
2022-09-28T07:27:33.061Z,94639.31
2022-09-28T07:30:00.826Z,94626.78
2022-09-28T07:32:29.123Z,94642.34
2022-09-28T07:34:58.937Z,94640.28
2022-09-28T07:37:27.705Z,94651.75
2022-09-28T07:40:12.766Z,94661.75
2022-09-28T07:42:42.447Z,94669.31
2022-09-28T07:45:11.476Z,94668.00
2022-09-28T07:47:39.359Z,94675.06
2022-09-28T07:50:07.821Z,94667.06
2022-09-28T07:52:36.229Z,94668.13
2022-09-28T07:55:07.251Z,94670.41
2022-09-28T07:57:35.467Z,94675.53
2022-09-28T08:00:07.206Z,94679.75
2022-09-28T08:02:35.527Z,94676.34
2022-09-28T08:05:03.419Z,94680.56
2022-09-28T08:07:31.810Z,94716.91
2022-09-28T08:09:59.798Z,94691.50
2022-09-28T08:12:27.950Z,94686.84
2022-09-28T08:14:56.026Z,94689.53
2022-09-28T08:17:26.813Z,94697.84
2022-09-28T08:20:11.919Z,94696.91
2022-09-28T08:22:39.912Z,94696.69
2022-09-28T08:25:08.468Z,94697.41
2022-09-28T08:27:36.121Z,94705.78
2022-09-28T08:30:06.112Z,94710.41
2022-09-28T08:32:35.882Z,94709.47
2022-09-28T08:35:04.193Z,94497.72
2022-09-28T08:37:32.487Z,94720.91
2022-09-28T08:40:02.153Z,94716.13
2022-09-28T08:42:34.083Z,94722.31
2022-09-28T08:45:07.648Z,94715.50
2022-09-28T08:47:54.950Z,94721.75
2022-09-28T08:50:27.184Z,94713.00
2022-09-28T08:52:55.359Z,94719.19
2022-09-28T08:55:28.165Z,94718.91
2022-09-28T08:58:00.521Z,94725.16
2022-09-28T09:00:35.233Z,94724.09
2022-09-28T09:03:06.334Z,94718.69
2022-09-28T09:05:40.963Z,94721.31
2022-09-28T09:08:11.148Z,94730.22
2022-09-28T09:10:57.647Z,94735.72
2022-09-28T09:13:38.323Z,94735.50
2022-09-28T09:16:10.649Z,94735.25
2022-09-28T09:18:42.261Z,94735.94
2022-09-28T09:21:13.736Z,94745.69
2022-09-28T09:23:44.865Z,94748.69
2022-09-28T09:26:20.957Z,94741.41
2022-09-28T09:29:06.181Z,94752.53
2022-09-28T09:31:38.244Z,94753.16
2022-09-28T09:34:26.661Z,94516.19
2022-09-28T09:37:00.321Z,94757.97
2022-09-28T09:39:35.547Z,94763.66
2022-09-28T09:42:09.676Z,94765.97
2022-09-28T09:44:50.426Z,94773.97
2022-09-28T09:47:20.981Z,94769.16
2022-09-28T09:49:51.106Z,94775.44
2022-09-28T09:52:23.969Z,94772.09
2022-09-28T09:54:52.898Z,94772.97
2022-09-28T09:57:21.633Z,94775.78
2022-09-28T09:59:49.494Z,94779.44
2022-09-28T10:02:21.135Z,94777.34
2022-09-28T10:04:48.728Z,94768.44
2022-09-28T10:07:17.446Z,94769.22
2022-09-28T10:09:47.463Z,94769.38
2022-09-28T10:12:17.159Z,94764.69
2022-09-28T10:14:46.461Z,94768.47
2022-09-28T10:17:18.070Z,94763.78
2022-09-28T10:19:49.094Z,94772.19
2022-09-28T10:22:17.939Z,94768.75
2022-09-28T10:24:47.725Z,94766.72
2022-09-28T10:27:16.737Z,94762.69
2022-09-28T10:29:46.911Z,94761.41
2022-09-28T10:32:19.791Z,94763.00
2022-09-28T10:34:50.321Z,94768.50
2022-09-28T10:37:19.171Z,94531.78
2022-09-28T10:39:49.107Z,94761.59
2022-09-28T10:42:20.130Z,94767.53
2022-09-28T10:44:51.927Z,94520.22
2022-09-28T10:47:20.815Z,94761.03
2022-09-28T10:49:54.155Z,94770.13
2022-09-28T10:52:39.927Z,94766.88
2022-09-28T10:55:23.419Z,94768.44
2022-09-28T10:57:57.109Z,94772.81
2022-09-28T11:00:32.917Z,94767.22
2022-09-28T11:03:00.986Z,94777.16
2022-09-28T11:05:28.857Z,94775.47
2022-09-28T11:07:57.253Z,94772.50
2022-09-28T11:10:26.917Z,94777.78
2022-09-28T11:12:56.032Z,94773.66
2022-09-28T11:15:25.161Z,94778.88
2022-09-28T11:17:57.370Z,94772.97
2022-09-28T11:20:35.057Z,94760.66
2022-09-28T11:23:17.972Z,94763.25
2022-09-28T11:25:46.252Z,94775.31
2022-09-28T11:28:19.493Z,94770.81
2022-09-28T11:30:48.705Z,94768.63
2022-09-28T11:33:20.712Z,94769.88
2022-09-28T11:35:50.967Z,94758.50
2022-09-28T11:38:21.476Z,94754.41
2022-09-28T11:40:54.275Z,94749.50
2022-09-28T11:43:28.278Z,94757.06
2022-09-28T11:45:56.904Z,94752.81
2022-09-28T11:48:27.515Z,94741.53
2022-09-28T11:50:56.270Z,94749.34
2022-09-28T11:53:26.162Z,94744.75
2022-09-28T11:55:56.230Z,94751.69
2022-09-28T11:58:26.928Z,94742.81
2022-09-28T12:00:56.075Z,94740.88
2022-09-28T12:03:24.896Z,94748.03
2022-09-28T12:05:54.074Z,94738.09
2022-09-28T12:08:25.374Z,94749.25
2022-09-28T12:10:55.482Z,94761.44
2022-09-28T12:13:25.400Z,94749.25
2022-09-28T12:16:27.309Z,94749.28
2022-09-28T12:18:46.178Z,94746.09
2022-09-28T12:21:19.892Z,94748.19
2022-09-28T12:23:47.629Z,94734.44
2022-09-28T12:26:19.426Z,94734.50
2022-09-28T12:28:47.573Z,94728.63
2022-09-28T12:31:18.019Z,94725.63
2022-09-28T12:33:46.993Z,94741.78
2022-09-28T12:36:17.908Z,94732.03
2022-09-28T12:39:08.529Z,94734.75
2022-09-28T12:41:46.187Z,94734.91
2022-09-28T12:44:18.561Z,94738.84
2022-09-28T12:46:53.933Z,94742.31
2022-09-28T12:52:19.179Z,94733.28
2022-09-28T12:55:08.401Z,94735.88
2022-09-28T12:57:40.801Z,94732.97
2022-09-28T13:00:10.140Z,94732.09
2022-09-28T13:02:57.008Z,94738.28
2022-09-28T13:05:29.570Z,94734.44
2022-09-28T13:07:58.254Z,94731.56
2022-09-28T13:10:32.510Z,94730.28
2022-09-28T13:13:04.338Z,94721.41
2022-09-28T13:15:37.280Z,94730.38
2022-09-28T13:18:08.346Z,94725.75
2022-09-28T13:20:40.626Z,94716.69
2022-09-28T13:23:12.340Z,94723.22
2022-09-28T13:25:41.499Z,94720.53
2022-09-28T13:28:11.091Z,94718.16
2022-09-28T13:30:40.137Z,94711.22
2022-09-28T13:33:09.642Z,94719.44
2022-09-28T13:35:37.426Z,94721.13
2022-09-28T13:38:23.695Z,94720.88
2022-09-28T13:41:09.940Z,94729.47
2022-09-28T13:43:43.865Z,94728.13
2022-09-28T13:46:11.797Z,94729.53
2022-09-28T13:48:44.420Z,94735.88
2022-09-28T13:51:25.651Z,94720.19
2022-09-28T13:53:58.810Z,94719.69
2022-09-28T13:56:29.445Z,94728.13
2022-09-28T13:58:58.281Z,94537.72
2022-09-28T14:01:27.834Z,94726.25
2022-09-28T14:04:12.193Z,94729.94
2022-09-28T14:06:44.154Z,94732.59
2022-09-28T14:09:28.581Z,94734.91
2022-09-28T14:11:57.217Z,94739.78
2022-09-28T14:14:29.215Z,94745.81
2022-09-28T14:17:15.742Z,94743.06
2022-09-28T14:19:45.090Z,94755.47
2022-09-28T14:22:15.531Z,94749.06
2022-09-28T14:24:51.985Z,94746.94
2022-09-28T14:27:24.829Z,94735.19
2022-09-28T14:29:55.014Z,94742.88
2022-09-28T14:32:23.690Z,94750.88
2022-09-28T14:34:57.948Z,94739.69
2022-09-28T14:37:44.827Z,94749.47
2022-09-28T14:40:35.030Z,94744.59
2022-09-28T14:43:24.735Z,94747.63
2022-09-28T14:45:54.673Z,94749.97
2022-09-28T14:48:25.247Z,94743.88
2022-09-28T14:50:57.025Z,94757.59
2022-09-28T14:53:25.125Z,94756.50
2022-09-28T14:55:55.442Z,94753.78
2022-09-28T14:58:23.991Z,94763.09
2022-09-28T15:01:00.070Z,94757.50
2022-09-28T15:03:28.340Z,94756.03
2022-09-28T15:05:58.654Z,94759.47
2022-09-28T15:08:36.425Z,94758.34
2022-09-28T15:11:05.306Z,94763.09
2022-09-28T15:13:33.249Z,94751.91
2022-09-28T15:16:01.744Z,94753.53
2022-09-28T15:18:43.798Z,94756.31
2022-09-28T15:21:12.914Z,94757.75
2022-09-28T15:23:41.174Z,94751.88
2022-09-28T15:26:19.744Z,94754.66
2022-09-28T15:28:47.493Z,94755.38
2022-09-28T15:31:19.559Z,94762.31
2022-09-28T15:34:04.876Z,94755.75
2022-09-28T15:36:36.861Z,94755.06
2022-09-28T15:39:05.614Z,94758.44
2022-09-28T15:41:33.368Z,94768.41
2022-09-28T15:44:08.509Z,94765.94
2022-09-28T15:46:36.778Z,94766.97
2022-09-28T15:49:04.863Z,94772.31
2022-09-28T15:51:34.262Z,94774.78
2022-09-28T15:54:02.869Z,94770.66
2022-09-28T15:56:31.038Z,94771.69
2022-09-28T15:59:11.272Z,94774.56
2022-09-28T16:01:40.114Z,94768.19
2022-09-28T16:04:26.815Z,94765.97
2022-09-28T16:07:09.334Z,94768.09
2022-09-28T16:09:41.270Z,94776.66
2022-09-28T16:12:10.956Z,94777.50
2022-09-28T16:14:39.152Z,94778.19
2022-09-28T16:17:09.878Z,94779.50
2022-09-28T16:19:37.827Z,94780.50
2022-09-28T16:22:06.472Z,94787.00
2022-09-28T16:24:34.908Z,94786.44
2022-09-28T16:27:05.085Z,94778.94
2022-09-28T16:29:39.160Z,94786.97
2022-09-28T16:32:33.701Z,94780.69
2022-09-28T16:35:15.931Z,94794.56
2022-09-28T16:37:43.611Z,94783.16
2022-09-28T16:40:11.796Z,94794.31
2022-09-28T16:42:48.888Z,94790.53
2022-09-28T16:45:19.814Z,94796.19
2022-09-28T16:47:52.954Z,94798.00
2022-09-28T16:50:21.417Z,94799.06
2022-09-28T16:53:07.925Z,94813.34
2022-09-28T16:55:40.548Z,94571.72
2022-09-28T16:58:10.259Z,94802.41
2022-09-28T17:00:41.422Z,94801.75
2022-09-28T17:03:12.559Z,94808.53
2022-09-28T17:05:40.940Z,94808.41
2022-09-28T17:08:10.797Z,94811.38
2022-09-28T17:10:56.058Z,94813.69
2022-09-28T17:13:33.427Z,94821.78
2022-09-28T17:16:01.791Z,94815.63
2022-09-28T17:18:32.370Z,94823.34
2022-09-28T17:21:02.871Z,94823.56
2022-09-28T17:23:30.829Z,94820.69
2022-09-28T17:25:59.184Z,94838.03
2022-09-28T17:28:27.622Z,94877.22
2022-09-28T17:30:57.131Z,94846.44
2022-09-28T17:33:25.016Z,94849.25
2022-09-28T17:35:53.242Z,94844.59
2022-09-28T17:38:21.082Z,94851.47
2022-09-28T17:40:49.011Z,94848.66
2022-09-28T17:43:16.904Z,94845.84
2022-09-28T17:45:44.560Z,94852.50
2022-09-28T17:48:15.766Z,94855.81
2022-09-28T17:50:46.594Z,94860.66
2022-09-28T17:53:14.719Z,94857.38
2022-09-28T17:55:43.092Z,94858.34
2022-09-28T17:58:17.618Z,94860.19
2022-09-28T18:00:45.292Z,94866.00
2022-09-28T18:03:16.439Z,94867.47
2022-09-28T18:05:48.384Z,94864.69
2022-09-28T18:08:16.812Z,94873.06
2022-09-28T18:10:46.962Z,94874.31
2022-09-28T18:13:14.845Z,94868.72
2022-09-28T18:15:42.707Z,94865.31
2022-09-28T18:18:15.485Z,94879.59
2022-09-28T18:20:44.730Z,94879.91
2022-09-28T18:23:12.625Z,94878.63
2022-09-28T18:25:40.580Z,94888.97
2022-09-28T18:28:08.642Z,94884.75
2022-09-28T18:30:39.292Z,94893.31
2022-09-28T18:33:07.504Z,94890.03
2022-09-28T18:35:38.157Z,94890.81
2022-09-28T18:38:10.351Z,94895.53
2022-09-28T18:40:37.999Z,94900.16
2022-09-28T18:43:05.895Z,94901.53
2022-09-28T18:45:36.445Z,94914.25
2022-09-28T18:48:04.209Z,94917.38
2022-09-28T18:50:32.253Z,94916.06
2022-09-28T18:53:11.551Z,94914.59
2022-09-28T18:55:45.181Z,94921.91
2022-09-28T18:58:14.771Z,94919.91
2022-09-28T19:00:43.421Z,94932.31
2022-09-28T19:03:11.992Z,94932.19
2022-09-28T19:05:42.040Z,94935.19
2022-09-28T19:08:10.088Z,94930.50
2022-09-28T19:10:39.121Z,94936.44
2022-09-28T19:13:08.561Z,94939.00
2022-09-28T19:15:36.285Z,94938.06
2022-09-28T19:18:04.066Z,94933.69
2022-09-28T19:20:34.396Z,94938.25
2022-09-28T19:23:02.792Z,94945.25
2022-09-28T19:25:32.836Z,94938.25
2022-09-28T19:28:02.736Z,94946.69
2022-09-28T19:30:32.393Z,94943.38
2022-09-28T19:33:00.054Z,94948.88
2022-09-28T19:35:28.168Z,94959.69
2022-09-28T19:37:56.504Z,94959.63
2022-09-28T19:40:24.326Z,94963.69
2022-09-28T19:42:52.367Z,94957.13
2022-09-28T19:45:24.004Z,94957.53
2022-09-28T19:47:57.299Z,94966.06
2022-09-28T19:50:27.568Z,94967.75
2022-09-28T19:53:04.014Z,94966.56
2022-09-28T19:55:37.438Z,94959.38
2022-09-28T19:58:05.243Z,94969.13
2022-09-28T20:00:33.201Z,94967.28
2022-09-28T20:03:03.292Z,94964.69
2022-09-28T20:05:31.081Z,94971.63
2022-09-28T20:07:58.887Z,94976.84
2022-09-28T20:10:28.916Z,94978.13
2022-09-28T20:12:59.354Z,94973.44
2022-09-28T20:15:27.081Z,94977.19
2022-09-28T20:17:58.761Z,94983.88
2022-09-28T20:20:29.364Z,94991.25
2022-09-28T20:23:00.137Z,94981.59
2022-09-28T20:25:28.983Z,94979.06
2022-09-28T20:27:59.161Z,94992.34
2022-09-28T20:30:27.961Z,94995.91
2022-09-28T20:32:57.873Z,94996.25
2022-09-28T20:35:33.036Z,94991.34
2022-09-28T20:38:08.233Z,94994.13
2022-09-28T20:40:36.609Z,94996.84
2022-09-28T20:43:06.109Z,94993.34
2022-09-28T20:45:36.595Z,94998.31
2022-09-28T20:48:06.278Z,95002.28
2022-09-28T20:50:36.774Z,95003.44
2022-09-28T20:53:05.433Z,95012.50
2022-09-28T20:55:32.990Z,95007.41
2022-09-28T20:58:02.734Z,95004.09
2022-09-28T21:00:31.488Z,94994.91
2022-09-28T21:03:04.353Z,95000.09
2022-09-28T21:05:31.993Z,95001.25
2022-09-28T21:08:03.952Z,94996.44
2022-09-28T21:10:31.992Z,94997.34
2022-09-28T21:12:59.520Z,94995.44
2022-09-28T21:15:28.293Z,94994.59
2022-09-28T21:17:55.954Z,94990.75
2022-09-28T21:20:23.543Z,94993.06
2022-09-28T21:22:56.092Z,94991.09
2022-09-28T21:25:31.576Z,94980.53
2022-09-28T21:27:59.632Z,94986.09
2022-09-28T21:30:28.232Z,94984.47
2022-09-28T21:32:56.136Z,94995.28
2022-09-28T21:35:26.711Z,94977.75
2022-09-28T21:37:55.024Z,94985.09
2022-09-28T21:40:25.262Z,94985.97
2022-09-28T21:42:54.612Z,94986.19
2022-09-28T21:45:22.759Z,94991.19
2022-09-28T21:47:53.077Z,94989.13
2022-09-28T21:50:23.794Z,94986.25
2022-09-28T21:52:56.730Z,94981.84
2022-09-28T21:55:25.528Z,94982.34
2022-09-28T21:57:56.541Z,94977.28
2022-09-28T22:00:26.497Z,95008.09
2022-09-28T22:02:57.083Z,94980.16
2022-09-28T22:05:24.872Z,94976.66
2022-09-28T22:07:52.393Z,94977.13
2022-09-28T22:10:23.254Z,94971.88
2022-09-28T22:12:50.843Z,94979.34
2022-09-28T22:15:19.795Z,94978.94
2022-09-28T22:17:49.877Z,94985.59
2022-09-28T22:20:18.883Z,94981.59
2022-09-28T22:22:51.175Z,94973.53
2022-09-28T22:25:21.926Z,94975.53
2022-09-28T22:27:49.528Z,94975.53
2022-09-28T22:30:17.049Z,94979.59
2022-09-28T22:32:48.536Z,94979.81
2022-09-28T22:35:16.142Z,94972.56
2022-09-28T22:37:47.043Z,94976.41
2022-09-28T22:40:17.143Z,94972.88
2022-09-28T22:42:47.615Z,94971.72
2022-09-28T22:45:26.301Z,94978.47
2022-09-28T22:47:57.229Z,94977.75
2022-09-28T22:50:25.300Z,94973.94
2022-09-28T22:52:53.367Z,94971.41
2022-09-28T22:55:22.717Z,94976.50
2022-09-28T22:57:52.654Z,94982.75
2022-09-28T23:00:20.543Z,94982.63
2022-09-28T23:02:51.254Z,94980.94
2022-09-28T23:05:20.672Z,94981.75
2022-09-28T23:07:50.888Z,94979.72
2022-09-28T23:10:18.564Z,94985.63
2022-09-28T23:12:46.764Z,94979.34
2022-09-28T23:15:16.201Z,94983.00
2022-09-28T23:17:44.077Z,94982.47
2022-09-28T23:20:13.519Z,94985.94
2022-09-28T23:22:46.571Z,94983.53
2022-09-28T23:25:14.230Z,94981.19
2022-09-28T23:27:44.350Z,94983.66
2022-09-28T23:30:12.241Z,94979.53
2022-09-28T23:32:40.106Z,94981.63
2022-09-28T23:35:08.370Z,94978.59
2022-09-28T23:37:38.763Z,94973.47
2022-09-28T23:40:08.798Z,94979.59
2022-09-28T23:42:36.968Z,94969.44
2022-09-28T23:45:05.023Z,94961.41
2022-09-28T23:47:32.570Z,94968.97
2022-09-28T23:50:00.196Z,94966.66
2022-09-28T23:52:31.190Z,94968.72
2022-09-28T23:54:58.959Z,94974.19
2022-09-28T23:57:27.924Z,94972.84
2022-09-28T23:59:57.012Z,94982.38
